Time;durP1;ratioP1;P1;durP2;ratioP2;P2;SDS_P1;SDS_P2;PMS_P1;PMS_P2;Temp;Humidity;BMP_temperature;BMP_pressure;BME280_temperature;BME280_humidity;BME280_pressure;Samples;Min_cycle;Max_cycle;Signal;HPM_P1;HPM_P2
2021/08/11 00:01:55;;;;;;;2.22;1.40;;;;;;;22.67;54.84;101827.66;5037508;28;20079;-74
2021/08/11 00:04:21;;;;;;;1.92;1.42;;;;;;;22.64;54.81;101826.78;5036154;28;20087;-74
2021/08/11 00:06:46;;;;;;;1.85;1.50;;;;;;;22.65;54.79;101825.91;5037268;28;20026;-74
2021/08/11 00:09:11;;;;;;;3.60;1.63;;;;;;;22.64;54.88;101824.16;5019571;28;20129;-74
2021/08/11 00:11:37;;;;;;;1.83;1.27;;;;;;;22.66;54.70;101831.19;5037190;28;20063;-74
2021/08/11 00:14:03;;;;;;;2.47;2.00;;;;;;;22.68;54.71;101833.81;5035908;28;20026;-74
2021/08/11 00:16:28;;;;;;;2.33;1.83;;;;;;;22.67;54.95;101832.06;5035953;28;20056;-74
2021/08/11 00:18:57;;;;;;;1.73;1.33;;;;;;;22.61;54.96;101817.13;5035757;28;20560;-75
2021/08/11 00:21:24;;;;;;;2.38;1.40;;;;;;;22.65;54.80;101825.91;5036990;28;20021;-73
2021/08/11 00:23:50;;;;;;;1.52;1.38;;;;;;;22.63;54.91;101828.56;5037229;28;20026;-73
2021/08/11 00:26:15;;;;;;;1.98;1.25;;;;;;;22.65;54.86;101831.19;5036950;28;20380;-73
2021/08/11 00:28:41;;;;;;;2.72;1.50;;;;;;;22.60;54.76;101828.56;5019217;28;20033;-73
2021/08/11 00:31:06;;;;;;;1.25;1.00;;;;;;;22.62;54.85;101825.91;5019286;28;20029;-73
2021/08/11 00:33:31;;;;;;;1.42;1.10;;;;;;;22.62;54.80;101826.81;5036802;28;20112;-73
2021/08/11 00:35:57;;;;;;;1.98;1.27;;;;;;;22.65;54.92;101831.19;5036646;28;20025;-73
2021/08/11 00:38:22;;;;;;;1.70;1.17;;;;;;;22.65;54.66;101834.69;5035429;28;20025;-73
2021/08/11 00:40:48;;;;;;;1.70;1.30;;;;;;;22.66;54.88;101827.66;5018913;28;20495;-73
2021/08/11 00:43:14;;;;;;;1.75;1.02;;;;;;;22.59;54.96;101816.25;5036747;28;20505;-73
2021/08/11 00:45:39;;;;;;;1.65;1.30;;;;;;;22.64;54.85;101825.03;5035289;28;20037;-74
2021/08/11 00:48:07;;;;;;;1.95;1.20;;;;;;;22.65;54.84;101823.28;5035180;28;20021;-74
2021/08/11 00:50:33;;;;;;;1.83;1.30;;;;;;;22.63;54.97;101818.00;5036435;28;20025;-75
2021/08/11 00:52:58;;;;;;;1.58;1.13;;;;;;;22.61;54.74;101822.41;5036401;28;20022;-74
2021/08/11 00:55:24;;;;;;;1.50;1.10;;;;;;;22.65;54.70;101831.19;5018895;28;20033;-73
2021/08/11 00:57:51;;;;;;;1.65;1.13;;;;;;;22.62;54.93;101826.81;5035312;28;20040;-74
2021/08/11 01:00:18;;;;;;;2.17;1.45;;;;;;;22.64;54.81;101838.22;5036339;28;20021;-75
2021/08/11 01:02:45;;;;;;;2.08;1.40;;;;;;;22.64;55.06;101826.78;5018689;28;20036;-73
2021/08/11 01:05:13;;;;;;;1.98;1.55;;;;;;;22.63;54.90;101832.94;5035156;28;20029;-75
2021/08/11 01:07:39;;;;;;;1.80;1.48;;;;;;;22.61;55.01;101818.91;5036364;28;20053;-75
2021/08/11 01:10:06;;;;;;;1.52;1.15;;;;;;;22.60;54.77;101817.13;5035990;28;20068;-75
2021/08/11 01:12:32;;;;;;;1.75;1.23;;;;;;;22.63;54.91;101820.66;5036039;28;20054;-74
2021/08/11 01:14:58;;;;;;;1.75;1.30;;;;;;;22.61;54.78;101814.50;5034881;28;20028;-73
2021/08/11 01:17:24;;;;;;;1.63;1.20;;;;;;;22.62;54.82;101812.75;5034561;28;20536;-73
2021/08/11 01:19:50;;;;;;;1.80;1.40;;;;;;;22.64;54.88;101816.25;5036035;28;20083;-73
2021/08/11 01:22:52;;;;;;;2.00;1.25;;;;;;;22.62;54.92;101807.47;5018208;28;20029;-72
2021/08/11 01:25:40;;;;;;;1.75;1.15;;;;;;;22.59;54.82;101803.09;5035816;28;20017;-73
2021/08/11 01:28:20;;;;;;;1.75;1.20;;;;;;;22.63;54.84;101814.50;5035674;28;20025;-73
2021/08/11 01:31:10;;;;;;;2.03;1.52;;;;;;;22.60;54.74;101798.69;5034375;28;20116;-73
2021/08/11 01:33:35;;;;;;;2.13;1.40;;;;;;;22.63;54.80;101806.59;5035711;28;20037;-74
2021/08/11 01:36:07;;;;;;;2.75;1.67;;;;;;;22.56;54.75;101800.50;5035588;28;20025;-72
2021/08/11 01:38:36;;;;;;;2.10;1.77;;;;;;;22.59;54.95;101805.72;5035714;28;20079;-73
2021/08/11 01:41:04;;;;;;;2.75;1.48;;;;;;;22.60;54.71;101804.84;5035581;28;20021;-75
2021/08/11 01:43:37;;;;;;;2.13;1.63;;;;;;;22.61;54.57;101813.63;5034276;28;20172;-74
2021/08/11 01:46:06;;;;;;;1.88;1.15;;;;;;;22.58;54.90;101806.63;5034266;28;20029;-74
2021/08/11 01:48:35;;;;;;;1.95;1.33;;;;;;;22.58;54.83;101817.19;5035666;28;20080;-75
2021/08/11 01:51:00;;;;;;;1.85;1.60;;;;;;;22.61;54.69;101819.78;5033921;28;20108;-75
2021/08/11 01:53:27;;;;;;;3.35;1.45;;;;;;;22.61;54.87;101816.25;5017478;28;20468;-75
2021/08/11 01:55:56;;;;;;;2.08;1.30;;;;;;;22.56;54.75;101811.03;5035239;28;20026;-75
2021/08/11 01:58:22;;;;;;;3.05;1.58;;;;;;;22.60;54.76;101814.50;5035303;28;20029;-75
2021/08/11 02:00:50;;;;;;;2.03;1.38;;;;;;;22.58;54.96;101822.44;5033913;28;20052;-75
2021/08/11 02:03:20;;;;;;;1.40;1.15;;;;;;;22.60;54.99;101825.94;5035047;28;20097;-75
2021/08/11 02:05:46;;;;;;;1.80;1.30;;;;;;;22.57;54.85;101819.81;5035242;28;20031;-75
2021/08/11 02:08:14;;;;;;;2.35;1.45;;;;;;;22.57;54.72;101819.81;5033814;28;20372;-75
2021/08/11 02:10:42;;;;;;;1.58;1.17;;;;;;;22.57;55.10;101818.06;5033738;28;20124;-75
2021/08/11 02:13:08;;;;;;;1.73;0.98;;;;;;;22.60;54.82;101819.78;5033215;28;20072;-74
2021/08/11 02:15:33;;;;;;;2.08;1.40;;;;;;;22.57;54.79;101820.69;5033551;28;20025;-75
2021/08/11 02:17:59;;;;;;;1.92;1.35;;;;;;;22.58;54.81;101819.81;5000735;28;20033;-74
2021/08/11 02:20:24;;;;;;;1.75;1.40;;;;;;;22.59;54.85;101820.69;5033625;28;20518;-75
2021/08/11 02:22:50;;;;;;;1.83;1.33;;;;;;;22.56;54.72;101812.78;5034854;28;20056;-75
2021/08/11 02:25:15;;;;;;;1.50;1.15;;;;;;;22.54;54.66;101812.81;5000866;28;20060;-75
2021/08/11 02:27:49;;;;;;;1.70;1.20;;;;;;;22.54;54.77;101811.94;5017019;28;20537;-75
2021/08/11 02:30:20;;;;;;;2.30;1.40;;;;;;;22.59;54.80;101820.69;5034521;28;20112;-74
2021/08/11 02:32:58;;;;;;;2.28;1.70;;;;;;;22.57;54.82;101818.06;5034529;28;20033;-75
2021/08/11 02:35:31;;;;;;;1.50;1.30;;;;;;;22.53;54.88;101808.41;5034636;28;20464;-74
2021/08/11 02:38:11;;;;;;;;;;;;;;;22.59;54.72;101823.34;5034909;28;20112;-75
2021/08/11 02:40:41;;;;;;;2.10;1.33;;;;;;;22.59;54.77;101828.59;5034526;28;19909;-74
2021/08/11 02:43:21;;;;;;;1.80;1.40;;;;;;;22.56;54.69;101818.06;5034426;28;20029;-75
2021/08/11 02:45:53;;;;;;;2.33;1.45;;;;;;;22.56;54.91;101818.06;5033112;28;20037;-74
2021/08/11 02:48:20;;;;;;;1.45;1.17;;;;;;;22.55;54.78;101811.91;5033087;28;20042;-75
2021/08/11 02:50:45;;;;;;;1.80;1.27;;;;;;;22.55;54.80;101819.81;5000419;28;20040;-75
2021/08/11 02:53:15;;;;;;;1.73;1.23;;;;;;;22.57;54.85;101825.97;5034050;28;20124;-75
2021/08/11 02:55:40;;;;;;;2.90;1.42;;;;;;;22.57;54.83;101817.19;5034208;28;20368;-75
2021/08/11 02:58:08;;;;;;;1.95;1.48;;;;;;;22.54;54.70;101807.53;5016362;28;20040;-75
2021/08/11 03:00:35;;;;;;;1.80;1.40;;;;;;;22.51;54.69;101811.94;5032884;28;20021;-75
2021/08/11 03:03:01;;;;;;;1.83;1.45;;;;;;;22.54;54.88;101806.66;5032983;28;20472;-75
2021/08/11 03:05:27;;;;;;;1.20;1.00;;;;;;;22.56;54.80;101815.44;5033908;28;20021;-75
2021/08/11 03:07:54;;;;;;;2.03;1.30;;;;;;;22.57;54.60;101814.56;5033826;28;20037;-73
2021/08/11 03:10:21;;;;;;;2.10;1.35;;;;;;;22.55;54.85;101811.03;5032567;28;20041;-72
2021/08/11 03:12:47;;;;;;;2.53;1.52;;;;;;;22.53;54.66;101804.91;5033796;28;20197;-73
2021/08/11 03:15:14;;;;;;;1.65;1.42;;;;;;;22.53;54.85;101802.25;5032806;28;20048;-73
2021/08/11 03:17:39;;;;;;;1.70;1.10;;;;;;;22.52;54.87;101811.06;5032582;28;20542;-73
2021/08/11 03:20:07;;;;;;;1.58;1.13;;;;;;;22.55;54.73;101814.56;5032410;28;20059;-73
2021/08/11 03:22:32;;;;;;;1.95;1.60;;;;;;;22.55;54.64;101811.91;5035997;28;20368;-73
2021/08/11 03:24:58;;;;;;;2.20;1.38;;;;;;;22.54;54.80;101817.19;5033446;28;20035;-74
2021/08/11 03:27:23;;;;;;;1.48;1.08;;;;;;;22.56;54.90;101820.72;5017005;28;20029;-74
2021/08/11 03:29:48;;;;;;;1.83;1.17;;;;;;;22.54;54.98;101825.09;5016123;28;20430;-73
2021/08/11 03:32:14;;;;;;;1.80;1.20;;;;;;;22.54;54.88;101823.34;5033660;28;20057;-73
2021/08/11 03:34:39;;;;;;;1.65;1.30;;;;;;;22.54;54.93;101828.63;5033607;28;20037;-73
2021/08/11 03:37:06;;;;;;;2.25;1.20;;;;;;;22.53;54.84;101820.72;5016869;28;20224;-73
2021/08/11 03:39:31;;;;;;;1.83;1.35;;;;;;;22.49;54.78;101819.84;5032607;28;20091;-73
2021/08/11 03:41:57;;;;;;;1.73;1.30;;;;;;;22.53;54.76;101820.72;5015972;28;20029;-73
2021/08/11 03:44:22;;;;;;;2.22;1.52;;;;;;;22.50;54.88;101818.97;5033681;28;20431;-73
2021/08/11 03:46:47;;;;;;;2.17;1.48;;;;;;;22.53;54.86;101826.00;5033553;28;20037;-73
2021/08/11 03:49:13;;;;;;;1.65;1.25;;;;;;;22.50;54.79;101821.59;5032402;28;20033;-73
2021/08/11 03:51:38;;;;;;;1.58;1.35;;;;;;;22.51;54.76;101819.84;5015801;28;20642;-73
2021/08/11 03:54:04;;;;;;;1.63;1.10;;;;;;;22.49;54.87;101819.84;5015940;28;20095;-73
2021/08/11 03:56:29;;;;;;;3.65;1.58;;;;;;;22.50;54.76;101831.28;5033438;28;20468;-74
2021/08/11 03:58:55;;;;;;;1.75;1.50;;;;;;;22.54;54.79;101827.75;5033531;28;20092;-74
2021/08/11 04:01:20;;;;;;;2.10;1.38;;;;;;;22.51;55.05;101831.25;5033351;28;20103;-74
2021/08/11 04:03:46;;;;;;;1.30;1.15;;;;;;;22.53;54.88;101826.88;5032237;28;20065;-73
2021/08/11 04:06:11;;;;;;;1.65;1.13;;;;;;;22.50;54.80;101821.59;5032320;28;20448;-73
2021/08/11 04:08:37;;;;;;;1.73;1.23;;;;;;;22.48;54.89;101823.38;5031947;28;20040;-73
2021/08/11 04:11:03;;;;;;;1.90;1.25;;;;;;;22.53;54.80;101833.91;5032162;28;20025;-73
2021/08/11 04:13:28;;;;;;;1.63;1.10;;;;;;;22.52;54.71;101827.75;5033051;28;20076;-73
2021/08/11 04:15:54;;;;;;;2.10;1.10;;;;;;;22.52;54.73;101829.50;5015690;28;20026;-73
2021/08/11 04:18:19;;;;;;;1.73;1.15;;;;;;;22.49;54.77;101819.84;5032031;28;20044;-73
2021/08/11 04:20:45;;;;;;;1.77;1.58;;;;;;;22.49;54.78;101830.41;5015388;28;20120;-73
2021/08/11 04:23:11;;;;;;;1.65;1.20;;;;;;;22.52;54.88;101834.78;5015612;28;20033;-73
2021/08/11 04:25:39;;;;;;;2.47;1.48;;;;;;;22.51;54.76;101825.13;5032727;28;20026;-75
2021/08/11 04:28:05;;;;;;;1.30;1.02;;;;;;;22.51;54.73;101831.25;5041121;28;20083;-74
2021/08/11 04:30:30;;;;;;;2.25;1.40;;;;;;;22.50;54.58;101839.19;5016288;28;20476;-74
2021/08/11 04:32:56;;;;;;;2.20;1.42;;;;;;;22.52;54.75;101846.19;5033531;28;20033;-74
2021/08/11 04:35:21;;;;;;;1.55;1.13;;;;;;;22.51;54.77;101839.19;5001424;28;20026;-74
2021/08/11 04:37:46;;;;;;;2.10;1.25;;;;;;;22.51;54.57;101843.56;5036814;28;20083;-74
2021/08/11 04:40:13;;;;;;;1.60;1.10;;;;;;;22.48;54.74;101839.19;5036875;28;20483;-74
2021/08/11 04:42:39;;;;;;;2.03;1.40;;;;;;;22.49;54.64;101840.94;5035496;28;20056;-74
2021/08/11 04:45:05;;;;;;;1.70;1.33;;;;;;;22.52;54.80;101850.59;5035554;28;20476;-74
2021/08/11 04:47:31;;;;;;;2.30;1.55;;;;;;;22.51;54.84;101846.22;5035397;28;20487;-74
2021/08/11 04:49:56;;;;;;;1.75;1.23;;;;;;;22.52;54.69;101837.41;5035136;28;20037;-74
2021/08/11 04:52:22;;;;;;;1.67;1.38;;;;;;;22.52;54.95;101843.56;5018806;28;20384;-74
2021/08/11 04:54:47;;;;;;;1.30;0.95;;;;;;;22.51;54.63;101841.81;5018984;28;20084;-74
2021/08/11 04:57:12;;;;;;;1.92;1.25;;;;;;;22.50;54.63;101833.91;5035357;28;20037;-74
2021/08/11 04:59:38;;;;;;;1.65;1.23;;;;;;;22.50;54.69;101836.53;5018508;28;20029;-74
2021/08/11 05:02:03;;;;;;;1.88;1.50;;;;;;;22.52;54.75;101834.78;5018508;28;20032;-74
2021/08/11 05:04:29;;;;;;;1.90;1.30;;;;;;;22.53;54.81;101841.81;5018737;28;20025;-74
2021/08/11 05:06:54;;;;;;;1.98;1.70;;;;;;;22.54;54.79;101844.44;5036283;28;20040;-74
2021/08/11 05:09:19;;;;;;;2.17;1.63;;;;;;;22.52;54.65;101846.19;5035125;28;20399;-74
2021/08/11 05:11:45;;;;;;;2.17;1.30;;;;;;;22.54;54.60;101847.06;5034591;28;20044;-74
2021/08/11 05:14:10;;;;;;;2.13;1.10;;;;;;;22.53;54.68;101839.16;5018346;28;20499;-74
2021/08/11 05:16:36;;;;;;;1.88;1.42;;;;;;;22.57;54.60;101843.56;5036083;28;20037;-74
2021/08/11 05:19:01;;;;;;;1.83;1.33;;;;;;;22.54;54.78;101838.28;5034645;28;20071;-74
2021/08/11 05:21:30;;;;;;;2.47;1.17;;;;;;;22.55;54.63;101843.56;5034851;28;20093;-74
2021/08/11 05:23:56;;;;;;;2.33;1.48;;;;;;;22.57;54.63;101843.56;5035236;28;20041;-74
2021/08/11 05:26:22;;;;;;;2.10;1.63;;;;;;;22.54;54.46;101844.44;5034594;28;20035;-74
2021/08/11 05:28:48;;;;;;;1.90;1.25;;;;;;;22.53;54.34;101844.44;5035793;28;20026;-74
2021/08/11 05:31:14;;;;;;;1.67;1.25;;;;;;;22.54;54.54;101854.09;5018017;28;20022;-73
2021/08/11 05:33:40;;;;;;;2.95;1.17;;;;;;;22.57;54.56;101854.09;5017926;28;20064;-73
2021/08/11 05:36:05;;;;;;;1.85;1.40;;;;;;;22.54;54.65;101857.63;5034369;28;20468;-73
2021/08/11 05:38:32;;;;;;;2.50;1.50;;;;;;;22.58;54.56;101864.63;5034467;28;20037;-74
2021/08/11 05:40:59;;;;;;;1.83;1.10;;;;;;;22.59;54.63;101868.16;5034418;28;20037;-74
2021/08/11 05:43:24;;;;;;;2.35;1.50;;;;;;;22.53;54.67;101861.13;5034296;28;20022;-74
2021/08/11 05:45:50;;;;;;;2.05;1.45;;;;;;;22.57;54.52;101870.78;5017930;28;20503;-74
2021/08/11 05:48:15;;;;;;;2.42;1.38;;;;;;;22.60;54.64;101872.50;5016827;28;20033;-74
2021/08/11 05:50:40;;;;;;;2.35;1.45;;;;;;;22.57;54.49;101865.53;5034104;28;20523;-74
2021/08/11 05:53:06;;;;;;;2.22;1.40;;;;;;;22.59;54.55;101879.53;5017608;28;20421;-74
2021/08/11 05:55:31;;;;;;;1.20;1.00;;;;;;;22.62;54.53;101878.66;5034366;28;20044;-74
2021/08/11 05:57:56;;;;;;;1.83;1.20;;;;;;;22.68;54.46;101883.91;5034021;28;20039;-74
2021/08/11 06:00:22;;;;;;;1.95;1.38;;;;;;;22.71;54.46;101881.25;5033969;28;20036;-74
2021/08/11 06:02:47;;;;;;;1.90;1.20;;;;;;;22.76;54.27;101883.00;5017450;28;20087;-74
2021/08/11 06:05:12;;;;;;;1.50;1.20;;;;;;;22.78;54.27;101886.50;5017566;28;20395;-74
2021/08/11 06:07:41;;;;;;;1.60;1.20;;;;;;;22.78;54.14;101891.78;5035291;28;20037;-75
2021/08/11 06:10:08;;;;;;;2.58;1.27;;;;;;;22.78;54.08;101889.13;5017387;28;20496;-74
2021/08/11 06:12:33;;;;;;;2.45;1.77;;;;;;;22.80;54.53;101892.66;5033944;28;20049;-74
2021/08/11 06:14:59;;;;;;;1.75;1.02;;;;;;;22.82;54.35;101892.63;5035005;28;20491;-74
2021/08/11 06:17:24;;;;;;;2.05;1.65;;;;;;;22.77;54.25;101889.16;5017166;28;20029;-73
2021/08/11 06:19:50;;;;;;;1.60;1.17;;;;;;;22.79;54.37;101887.38;5017123;28;20030;-73
2021/08/11 06:22:16;;;;;;;1.70;1.08;;;;;;;22.81;54.32;101896.16;5033896;28;20021;-73
2021/08/11 06:24:42;;;;;;;2.35;1.70;;;;;;;22.81;54.34;101888.25;5034949;28;20013;-73
2021/08/11 06:27:07;;;;;;;2.10;1.20;;;;;;;22.81;54.41;101890.88;5017016;28;20083;-73
2021/08/11 06:29:32;;;;;;;2.25;1.50;;;;;;;22.84;54.45;101896.16;5033712;28;20025;-73
2021/08/11 06:31:58;;;;;;;2.25;1.42;;;;;;;22.82;54.37;101892.63;5016786;28;20468;-73
2021/08/11 06:34:24;;;;;;;1.67;1.20;;;;;;;22.83;54.40;101891.75;5016884;28;20036;-73
2021/08/11 06:36:53;;;;;;;2.05;1.40;;;;;;;22.83;54.14;101897.03;5034620;28;20025;-73
2021/08/11 06:39:19;;;;;;;1.60;1.15;;;;;;;22.85;54.40;101902.31;5034343;28;20519;-73
2021/08/11 06:41:44;;;;;;;1.02;0.73;;;;;;;22.90;53.99;101917.19;5034502;28;20064;-73
2021/08/11 06:44:10;;;;;;;1.58;1.40;;;;;;;22.94;54.01;101916.31;5000578;28;20032;-73
2021/08/11 06:46:35;;;;;;;2.03;1.38;;;;;;;22.91;54.31;101907.53;5016518;28;20128;-73
2021/08/11 06:49:00;;;;;;;2.53;1.17;;;;;;;22.93;54.16;101911.03;5016529;28;20369;-73
2021/08/11 06:51:26;;;;;;;1.85;1.30;;;;;;;22.91;54.41;101908.41;5034194;28;20063;-73
2021/08/11 06:53:52;;;;;;;2.05;1.10;;;;;;;22.92;54.18;101904.88;5033361;28;20025;-73
2021/08/11 06:56:17;;;;;;;2.13;1.50;;;;;;;22.96;54.13;101911.91;5033301;28;20375;-73
2021/08/11 06:58:52;;;;;;;1.60;1.25;;;;;;;22.87;53.96;101885.56;5032808;28;20120;-73
2021/08/11 07:01:17;;;;;;;1.50;1.13;;;;;;;23.03;53.94;101903.03;5032915;28;20025;-74
2021/08/11 07:03:49;;;;;;;1.77;1.30;;;;;;;23.02;53.90;101905.69;5000693;28;20096;-73
2021/08/11 07:06:14;;;;;;;2.33;1.60;;;;;;;23.04;53.95;101914.47;5034329;28;20025;-73
2021/08/11 07:08:40;;;;;;;1.75;1.25;;;;;;;23.08;54.10;101919.72;5032884;28;20025;-73
2021/08/11 07:11:05;;;;;;;1.60;1.20;;;;;;;23.07;54.03;101915.34;5032744;28;20029;-73
2021/08/11 07:13:30;;;;;;;2.10;1.48;;;;;;;23.12;54.11;101924.06;5032500;28;20515;-73
2021/08/11 07:15:56;;;;;;;1.73;1.45;;;;;;;23.09;54.16;101920.59;5034224;28;20083;-73
2021/08/11 07:18:22;;;;;;;2.00;1.00;;;;;;;23.09;54.06;101915.31;5033923;28;20025;-72
2021/08/11 07:20:54;;;;;;;2.72;1.65;;;;;;;23.00;53.93;101907.44;5004163;28;20025;-72
2021/08/11 07:23:19;;;;;;;1.60;1.23;;;;;;;23.10;54.16;101927.63;5034207;28;20060;-73
2021/08/11 07:25:45;;;;;;;2.15;1.27;;;;;;;23.06;54.19;101920.63;5032664;28;20049;-74
2021/08/11 07:28:10;;;;;;;1.50;1.00;;;;;;;23.10;54.18;101928.50;5033645;28;20412;-73
2021/08/11 07:30:37;;;;;;;1.90;1.30;;;;;;;23.08;54.12;101916.22;5016101;28;20026;-73
2021/08/11 07:33:04;;;;;;;1.63;1.40;;;;;;;23.11;53.99;101927.59;5016003;28;20029;-73
2021/08/11 07:35:29;;;;;;;2.58;1.10;;;;;;;23.11;53.88;101921.44;5016278;28;20025;-74
2021/08/11 07:37:56;;;;;;;1.75;1.13;;;;;;;23.12;54.21;101923.19;5033783;28;20080;-73
2021/08/11 07:40:23;;;;;;;2.30;1.45;;;;;;;23.14;54.27;101929.34;5015959;28;20076;-73
2021/08/11 07:42:49;;;;;;;2.53;1.88;;;;;;;23.11;54.17;101919.69;5033407;28;20026;-73
2021/08/11 07:45:17;;;;;;;1.55;1.08;;;;;;;23.05;54.38;101922.38;5033543;28;20094;-74
2021/08/11 07:47:46;;;;;;;1.85;1.25;;;;;;;23.03;54.30;101910.94;5015966;28;20100;-73
2021/08/11 07:50:13;;;;;;;2.33;1.52;;;;;;;23.01;54.47;101914.47;5033513;28;20034;-73
2021/08/11 07:52:38;;;;;;;1.83;1.38;;;;;;;23.03;54.53;101921.50;5025642;28;20037;-73
2021/08/11 07:55:04;;;;;;;1.75;1.08;;;;;;;23.03;54.36;101924.16;5018507;28;20026;-74
2021/08/11 07:57:29;;;;;;;1.42;1.10;;;;;;;23.04;54.35;101928.53;5016726;28;20025;-73
2021/08/11 07:59:55;;;;;;;2.03;1.48;;;;;;;23.01;54.50;101919.75;5033633;28;20482;-73
2021/08/11 08:02:20;;;;;;;2.83;1.38;;;;;;;23.01;54.48;101922.41;5015939;28;20365;-73
2021/08/11 08:04:45;;;;;;;2.13;1.45;;;;;;;23.02;54.50;101927.66;5032264;28;20037;-73
2021/08/11 08:07:11;;;;;;;1.58;1.10;;;;;;;22.99;54.29;101929.44;5033212;28;20384;-74
2021/08/11 08:09:36;;;;;;;2.22;1.50;;;;;;;23.05;54.63;101930.28;5032034;28;20044;-73
2021/08/11 08:12:02;;;;;;;2.67;1.98;;;;;;;23.09;54.19;101925.88;5034620;28;20050;-73
2021/08/11 08:14:28;;;;;;;1.77;1.63;;;;;;;23.14;53.96;101930.22;5036373;28;20065;-74
2021/08/11 08:16:53;;;;;;;2.05;1.40;;;;;;;23.17;54.19;101922.28;5019467;28;20124;-73
2021/08/11 08:19:18;;;;;;;1.88;1.50;;;;;;;23.19;54.04;101922.28;5019435;28;20040;-73
2021/08/11 08:21:44;;;;;;;1.73;1.23;;;;;;;23.19;54.07;101917.00;5035891;28;20025;-73
2021/08/11 08:24:09;;;;;;;2.85;1.63;;;;;;;23.24;54.17;101927.53;5019423;28;20615;-73
2021/08/11 08:26:34;;;;;;;1.60;1.20;;;;;;;23.22;54.01;101916.97;5036561;28;20025;-74
2021/08/11 08:29:00;;;;;;;3.40;1.85;;;;;;;23.26;53.90;101931.88;5037582;28;20468;-73
2021/08/11 08:31:25;;;;;;;2.70;1.38;;;;;;;23.27;54.18;101938.03;5036952;28;20033;-74
2021/08/11 08:33:51;;;;;;;2.47;1.50;;;;;;;23.25;54.13;101930.13;5035791;28;20051;-74
2021/08/11 08:36:16;;;;;;;1.65;1.30;;;;;;;23.28;53.98;101929.25;5037284;28;20490;-74
2021/08/11 08:38:42;;;;;;;2.15;1.38;;;;;;;23.27;53.81;101927.50;5003051;28;20558;-74
2021/08/11 08:41:10;;;;;;;1.52;1.17;;;;;;;23.26;53.94;101926.59;5036841;28;20068;-73
2021/08/11 08:43:35;;;;;;;2.05;1.42;;;;;;;23.33;53.85;101935.38;5019174;28;20029;-73
2021/08/11 08:46:01;;;;;;;1.70;1.33;;;;;;;23.34;53.84;101939.75;5035788;28;20079;-74
2021/08/11 08:48:27;;;;;;;2.40;1.70;;;;;;;23.34;53.85;101939.75;5035683;28;20044;-74
2021/08/11 08:50:53;;;;;;;2.38;1.60;;;;;;;23.32;54.02;101939.78;5037684;28;20464;-74
2021/08/11 08:53:22;;;;;;;1.55;1.25;;;;;;;23.27;54.20;101925.72;5018862;28;20025;-73
2021/08/11 08:55:48;;;;;;;1.98;1.48;;;;;;;23.33;54.06;101930.97;5018810;28;20025;-73
2021/08/11 08:58:13;;;;;;;2.00;1.40;;;;;;;23.33;53.91;101930.09;5018636;28;20017;-73
2021/08/11 09:00:39;;;;;;;1.48;1.27;;;;;;;23.33;54.21;101936.25;5018888;28;20037;-74
2021/08/11 09:03:05;;;;;;;2.20;1.60;;;;;;;23.33;54.09;101928.31;5019050;28;20490;-73
2021/08/11 09:05:30;;;;;;;2.30;1.60;;;;;;;23.28;54.12;101930.13;5036507;28;20029;-73
2021/08/11 09:07:56;;;;;;;1.60;1.23;;;;;;;23.27;54.21;101930.13;5018677;28;20061;-73
2021/08/11 09:10:27;;;;;;;1.20;1.00;;;;;;;23.30;53.88;101936.25;5018357;28;20021;-73
2021/08/11 09:12:54;;;;;;;1.58;1.13;;;;;;;23.29;54.03;101931.88;5034712;28;20045;-73
2021/08/11 09:15:40;;;;;;;1.60;1.20;;;;;;;23.30;54.15;101935.38;5034834;28;20490;-73
2021/08/11 09:18:18;;;;;;;2.00;1.55;;;;;;;23.29;54.15;101937.16;5034686;28;20041;-73
2021/08/11 09:20:46;;;;;;;2.33;1.67;;;;;;;23.32;54.01;101937.13;5036083;28;20456;-74
2021/08/11 09:23:14;;;;;;;2.75;1.52;;;;;;;23.33;54.17;101948.56;5034978;28;20029;-75
2021/08/11 09:25:56;;;;;;;2.00;1.42;;;;;;;23.29;54.16;101946.81;5034669;28;20033;-75
2021/08/11 09:28:21;;;;;;;2.00;1.60;;;;;;;23.30;54.16;101940.66;5034971;28;20021;-75
2021/08/11 09:30:47;;;;;;;1.77;1.20;;;;;;;23.31;54.18;101940.66;5035790;28;20036;-75
2021/08/11 09:33:12;;;;;;;2.15;1.25;;;;;;;23.29;54.25;101950.34;5034761;28;20065;-75
2021/08/11 09:35:38;;;;;;;1.75;1.30;;;;;;;23.28;54.24;101947.72;5018211;28;20052;-75
2021/08/11 09:38:06;;;;;;;1.65;1.20;;;;;;;23.30;54.25;101949.47;5034568;28;20029;-75
2021/08/11 09:40:34;;;;;;;1.45;1.10;;;;;;;23.29;54.03;101952.09;5035780;28;20014;-75
2021/08/11 09:43:08;;;;;;;2.00;1.63;;;;;;;23.26;54.12;101947.72;5035676;28;20025;-75
2021/08/11 09:45:54;;;;;;;3.30;2.17;;;;;;;23.29;54.14;101952.09;5035560;28;20032;-75
2021/08/11 09:48:22;;;;;;;2.28;1.40;;;;;;;23.28;54.27;101953.00;5017890;28;20025;-75
2021/08/11 09:51:14;;;;;;;1.52;1.25;;;;;;;23.30;54.09;101954.75;5034212;28;20113;-75
2021/08/11 09:53:40;;;;;;;1.58;1.30;;;;;;;23.24;54.27;101944.22;5032203;28;20037;-74
2021/08/11 09:56:13;;;;;;;2.05;1.35;;;;;;;23.27;54.49;101948.59;5034131;28;20052;-74
2021/08/11 09:58:39;;;;;;;1.92;1.63;;;;;;;23.26;54.31;101952.13;5018102;28;20387;-74
2021/08/11 10:01:17;;;;;;;2.20;1.98;;;;;;;23.27;54.29;101957.41;5034089;28;20380;-74
2021/08/11 10:04:03;;;;;;;1.88;1.33;;;;;;;23.23;54.24;101938.97;5034100;28;20109;-74
2021/08/11 10:06:32;;;;;;;2.22;1.30;;;;;;;23.25;54.40;101959.16;5017507;28;20479;-75
2021/08/11 10:09:16;;;;;;;2.10;1.55;;;;;;;23.28;54.16;101961.78;5017585;28;20052;-74
2021/08/11 10:11:50;;;;;;;2.00;1.55;;;;;;;23.24;54.38;101946.00;5033725;28;20021;-74
2021/08/11 10:14:18;;;;;;;3.13;1.98;;;;;;;23.30;54.29;101961.78;5017455;28;20069;-73
2021/08/11 10:16:44;;;;;;;2.15;1.67;;;;;;;23.29;54.16;101967.94;5034017;28;20033;-74
2021/08/11 10:19:11;;;;;;;2.20;1.45;;;;;;;23.28;54.26;101960.91;5034056;28;20099;-75
2021/08/11 10:21:48;;;;;;;2.20;1.63;;;;;;;23.31;54.36;101969.69;5035089;28;20040;-75
2021/08/11 10:24:15;;;;;;;1.80;1.55;;;;;;;23.28;54.25;101964.44;5033725;28;20449;-74
2021/08/11 10:26:42;;;;;;;2.78;2.22;;;;;;;23.29;54.26;101970.59;5033602;28;20084;-75
2021/08/11 10:29:08;;;;;;;2.33;1.38;;;;;;;23.27;54.18;101960.03;5017207;28;20052;-74
2021/08/11 10:31:35;;;;;;;2.00;1.65;;;;;;;23.24;54.21;101957.41;5016794;28;20021;-74
2021/08/11 10:34:01;;;;;;;1.88;1.40;;;;;;;23.32;54.20;101976.72;5034203;28;20117;-75
2021/08/11 10:36:30;;;;;;;2.78;1.80;;;;;;;23.29;54.23;101957.38;5033302;28;20025;-74
2021/08/11 10:38:58;;;;;;;2.58;1.98;;;;;;;23.33;54.13;101969.69;5033547;28;20041;-75
2021/08/11 10:41:35;;;;;;;2.25;1.50;;;;;;;23.27;54.26;101959.16;5033441;28;20025;-75
2021/08/11 10:44:02;;;;;;;2.17;1.50;;;;;;;23.28;54.20;101967.06;5033437;28;20179;-73
2021/08/11 10:46:48;;;;;;;2.85;1.58;;;;;;;23.32;54.22;101974.09;5034859;28;20026;-73
2021/08/11 10:49:18;;;;;;;1.98;1.65;;;;;;;23.32;54.36;101975.84;5034625;28;20039;-73
2021/08/11 10:51:49;;;;;;;2.22;1.40;;;;;;;23.34;54.36;101974.06;5034451;28;20026;-73
2021/08/11 10:54:15;;;;;;;2.30;1.70;;;;;;;23.32;54.36;101967.94;5034171;28;20507;-72
2021/08/11 10:56:44;;;;;;;2.10;1.50;;;;;;;23.30;54.37;101978.50;5034365;28;20494;-73
2021/08/11 10:59:22;;;;;;;3.42;2.05;;;;;;;23.32;54.16;101978.50;5033124;28;20036;-75
2021/08/11 11:01:48;;;;;;;2.33;1.60;;;;;;;23.30;54.21;101978.50;5033100;28;20024;-74
2021/08/11 11:04:39;;;;;;;3.28;1.65;;;;;;;23.29;54.22;101981.13;5002824;28;20029;-74
2021/08/11 11:07:11;;;;;;;1.67;1.30;;;;;;;23.32;54.22;101982.00;5037002;28;20033;-74
2021/08/11 11:09:50;;;;;;;2.00;1.67;;;;;;;23.33;54.04;101982.88;5037085;28;20037;-73
2021/08/11 11:12:18;;;;;;;2.25;1.95;;;;;;;23.33;54.03;101980.25;5036728;28;20053;-74
2021/08/11 11:15:35;;;;;;;1.75;1.48;;;;;;;23.05;54.46;101954.03;5034615;28;20080;-75
2021/08/11 11:18:21;;;;;;;2.42;1.85;;;;;;;23.31;54.38;101992.56;5018505;28;20399;-73
2021/08/11 11:20:55;;;;;;;2.25;1.77;;;;;;;23.31;54.14;101995.22;5036310;28;20075;-73
2021/08/11 11:23:37;;;;;;;2.20;1.83;;;;;;;23.32;54.26;101991.69;5036590;28;20033;-73
2021/08/11 11:26:14;;;;;;;2.22;1.70;;;;;;;23.32;54.47;101991.69;5035759;28;20022;-74
2021/08/11 11:28:51;;;;;;;1.80;1.38;;;;;;;23.32;54.32;101989.91;5035452;28;20017;-74